createdAt,value
2022-11-29T00:01:42.259Z,12.52
2022-11-29T00:04:28.440Z,12.43
2022-11-29T00:06:56.543Z,11.30
2022-11-29T00:09:24.876Z,12.48
2022-11-29T00:12:11.792Z,12.50
2022-11-29T00:14:40.134Z,12.20
2022-11-29T00:17:09.051Z,13.13
2022-11-29T00:19:37.504Z,12.38
2022-11-29T00:22:05.627Z,14.25
2022-11-29T00:24:34.651Z,14.60
2022-11-29T00:27:03.996Z,14.73
2022-11-29T00:29:33.842Z,15.18
2022-11-29T00:32:02.023Z,14.32
2022-11-29T00:34:30.278Z,16.25
2022-11-29T00:37:16.772Z,14.95
2022-11-29T00:39:45.688Z,15.73
2022-11-29T00:42:13.616Z,15.80
2022-11-29T00:44:42.507Z,16.77
2022-11-29T00:47:10.383Z,14.93
2022-11-29T00:49:39.336Z,15.00
2022-11-29T00:52:07.054Z,15.75
2022-11-29T00:54:37.775Z,14.32
2022-11-29T00:57:06.058Z,15.70
2022-11-29T00:59:34.062Z,13.82
2022-11-29T01:02:01.801Z,12.45
2022-11-29T01:04:30.310Z,12.98
2022-11-29T01:06:58.077Z,11.65
2022-11-29T01:09:27.075Z,10.77
2022-11-29T01:11:57.431Z,12.40
2022-11-29T01:14:25.587Z,11.90
2022-11-29T01:16:55.942Z,11.70
2022-11-29T01:19:26.165Z,12.98
2022-11-29T01:21:54.323Z,12.18
2022-11-29T01:24:22.824Z,11.40
2022-11-29T01:26:51.489Z,11.80
2022-11-29T01:29:19.533Z,12.95
2022-11-29T01:31:47.844Z,11.68
2022-11-29T01:34:16.379Z,13.30
2022-11-29T01:36:44.745Z,13.32
2022-11-29T01:39:13.531Z,13.57
2022-11-29T01:41:41.366Z,14.00
2022-11-29T01:44:12.842Z,13.50
2022-11-29T01:46:42.725Z,12.90
2022-11-29T01:49:18.693Z,14.00
2022-11-29T01:51:51.572Z,12.50
2022-11-29T01:54:21.169Z,13.40
2022-11-29T01:56:51.960Z,13.00
2022-11-29T01:59:25.931Z,13.68
2022-11-29T02:02:19.477Z,12.43
2022-11-29T02:04:49.473Z,12.50
2022-11-29T02:07:17.764Z,14.32
2022-11-29T02:09:46.264Z,13.05
2022-11-29T02:12:50.083Z,13.13
2022-11-29T02:15:28.384Z,13.95
2022-11-29T02:18:11.223Z,15.05
2022-11-29T02:21:09.181Z,14.65
2022-11-29T02:24:12.385Z,13.57
2022-11-29T02:26:50.066Z,14.90
2022-11-29T02:30:09.431Z,14.02
2022-11-29T02:33:05.718Z,13.88
2022-11-29T02:35:44.713Z,13.75
2022-11-29T02:38:15.723Z,13.55
2022-11-29T02:40:59.649Z,13.40
2022-11-29T02:43:42.287Z,14.68
2022-11-29T02:46:54.689Z,13.93
2022-11-29T02:49:42.997Z,15.30
2022-11-29T02:52:37.442Z,13.82
2022-11-29T02:55:19.224Z,14.18
2022-11-29T02:58:15.397Z,14.15
2022-11-29T03:00:55.730Z,14.25
2022-11-29T03:03:31.817Z,15.63
2022-11-29T03:05:59.864Z,14.63
2022-11-29T03:08:51.213Z,14.70
2022-11-29T03:11:29.035Z,15.95
2022-11-29T03:14:19.822Z,14.50
2022-11-29T03:17:12.705Z,13.77
2022-11-29T03:20:23.502Z,15.02
2022-11-29T03:23:15.125Z,14.77
2022-11-29T03:25:51.564Z,14.43
2022-11-29T03:28:36.205Z,16.80
2022-11-29T03:31:22.345Z,14.88
2022-11-29T03:34:11.506Z,14.90
2022-11-29T03:36:58.227Z,17.08
2022-11-29T03:40:10.666Z,15.23
2022-11-29T03:42:48.533Z,15.73
2022-11-29T03:45:25.696Z,15.57
2022-11-29T03:48:24.503Z,15.65
2022-11-29T03:51:00.007Z,14.65
2022-11-29T03:54:03.438Z,13.48
2022-11-29T03:56:32.733Z,14.40
2022-11-29T03:59:18.479Z,14.23
2022-11-29T04:02:01.378Z,12.55
2022-11-29T04:04:58.382Z,12.90
2022-11-29T04:07:27.331Z,13.63
2022-11-29T04:10:14.284Z,13.48
2022-11-29T04:13:03.670Z,12.80
2022-11-29T04:16:07.612Z,13.07
2022-11-29T04:18:42.079Z,13.05
2022-11-29T04:21:27.936Z,12.80
2022-11-29T04:24:04.606Z,12.20
2022-11-29T04:26:38.722Z,13.23
2022-11-29T04:29:30.361Z,13.40
2022-11-29T04:32:42.958Z,12.48
2022-11-29T04:35:38.477Z,13.48
2022-11-29T04:38:27.989Z,13.07
2022-11-29T04:41:17.743Z,12.25
2022-11-29T04:43:59.914Z,12.75
2022-11-29T04:46:37.212Z,13.70
2022-11-29T04:49:22.425Z,14.10
2022-11-29T04:52:44.900Z,13.15
2022-11-29T04:55:46.792Z,14.23
2022-11-29T04:58:29.953Z,12.95
2022-11-29T05:01:12.361Z,11.10
2022-11-29T05:03:40.923Z,11.75
2022-11-29T05:06:17.738Z,11.77
2022-11-29T05:08:55.433Z,11.95
2022-11-29T05:11:42.524Z,10.88
2022-11-29T05:14:17.376Z,10.90
2022-11-29T05:17:06.208Z,11.43
2022-11-29T05:19:46.695Z,10.82
2022-11-29T05:22:28.465Z,10.32
2022-11-29T05:25:04.908Z,12.45
2022-11-29T05:27:47.338Z,10.43
2022-11-29T05:30:21.718Z,12.27
2022-11-29T05:32:55.509Z,12.60
2022-11-29T05:35:46.466Z,11.43
2022-11-29T05:38:34.763Z,10.43
2022-11-29T05:41:20.234Z,11.60
2022-11-29T05:44:29.867Z,11.55
2022-11-29T05:47:10.150Z,11.45
2022-11-29T05:50:02.364Z,10.27
2022-11-29T05:52:50.873Z,11.55
2022-11-29T05:55:42.941Z,10.48
2022-11-29T05:58:28.604Z,9.90
2022-11-29T06:01:14.740Z,10.48
2022-11-29T06:04:13.208Z,10.05
2022-11-29T06:07:10.515Z,12.00
2022-11-29T06:09:43.272Z,10.73
2022-11-29T06:12:23.028Z,10.43
2022-11-29T06:15:23.526Z,11.10
2022-11-29T06:18:09.979Z,11.20
2022-11-29T06:20:49.680Z,12.02
2022-11-29T06:23:42.256Z,11.43
2022-11-29T06:26:17.316Z,9.98
2022-11-29T06:28:45.563Z,11.00
2022-11-29T06:31:16.889Z,11.13
2022-11-29T06:33:56.560Z,11.50
2022-11-29T06:37:07.128Z,10.98
2022-11-29T06:39:35.168Z,11.27
2022-11-29T06:42:03.802Z,11.90
2022-11-29T06:44:32.088Z,11.60
2022-11-29T06:47:03.257Z,11.90
2022-11-29T06:49:41.079Z,12.68
2022-11-29T06:52:21.826Z,12.65
2022-11-29T06:54:49.993Z,10.68
2022-11-29T06:57:36.488Z,10.63
2022-11-29T07:00:22.346Z,10.32
2022-11-29T07:03:06.695Z,9.40
2022-11-29T07:05:36.423Z,9.75
2022-11-29T07:08:10.597Z,9.18
2022-11-29T07:10:40.867Z,8.63
2022-11-29T07:13:12.378Z,11.27
2022-11-29T07:16:06.188Z,9.70
2022-11-29T07:18:56.366Z,9.68
2022-11-29T07:21:43.674Z,9.95
2022-11-29T07:24:59.694Z,9.27
2022-11-29T07:27:55.762Z,10.15
2022-11-29T07:30:43.214Z,9.35
2022-11-29T07:33:34.662Z,9.45
2022-11-29T07:36:22.050Z,8.95
2022-11-29T07:38:56.128Z,10.13
2022-11-29T07:41:28.409Z,8.73
2022-11-29T07:43:56.187Z,9.18
2022-11-29T07:46:25.653Z,10.20
2022-11-29T07:48:53.538Z,9.07
2022-11-29T07:51:22.192Z,9.27
2022-11-29T07:53:50.454Z,10.95
2022-11-29T07:56:18.669Z,10.90
2022-11-29T07:58:47.358Z,11.13
2022-11-29T08:01:15.496Z,9.82
2022-11-29T08:03:45.756Z,9.93
2022-11-29T08:06:13.755Z,10.23
2022-11-29T08:08:44.211Z,11.00
2022-11-29T08:11:13.379Z,11.35
2022-11-29T08:13:41.187Z,11.15
2022-11-29T08:16:11.889Z,11.43
2022-11-29T08:18:40.121Z,10.55
2022-11-29T08:21:08.463Z,11.80
2022-11-29T08:23:36.364Z,10.48
2022-11-29T08:26:05.062Z,12.45
2022-11-29T08:28:33.104Z,11.70
2022-11-29T08:31:09.778Z,10.70
2022-11-29T08:33:40.056Z,12.25
2022-11-29T08:36:13.717Z,10.30
2022-11-29T08:38:42.229Z,11.35
2022-11-29T08:41:13.009Z,10.32
2022-11-29T08:43:43.655Z,11.27
2022-11-29T08:46:18.075Z,12.50
2022-11-29T08:48:47.507Z,10.45
2022-11-29T08:51:18.565Z,12.23
2022-11-29T08:53:51.608Z,13.13
2022-11-29T08:59:09.122Z,11.68
2022-11-29T09:01:37.240Z,10.27
2022-11-29T09:04:07.826Z,12.18
2022-11-29T09:06:42.912Z,11.10
2022-11-29T09:09:13.520Z,11.00
2022-11-29T09:11:45.861Z,11.23
2022-11-29T09:14:17.850Z,10.10
2022-11-29T09:16:46.445Z,8.43
2022-11-29T09:19:15.167Z,9.00
2022-11-29T09:21:44.202Z,9.98
2022-11-29T09:24:12.198Z,9.63
2022-11-29T09:26:42.173Z,9.80
2022-11-29T09:29:11.249Z,8.85
2022-11-29T09:31:39.371Z,9.40
2022-11-29T09:34:07.365Z,9.50
2022-11-29T09:36:35.853Z,11.05
2022-11-29T09:39:04.372Z,9.93
2022-11-29T09:41:57.810Z,10.40
2022-11-29T09:44:47.476Z,9.95
2022-11-29T09:48:00.757Z,8.93
2022-11-29T09:50:36.766Z,8.85
2022-11-29T09:53:26.672Z,9.52
2022-11-29T09:56:23.645Z,8.95
2022-11-29T09:59:00.702Z,9.68
2022-11-29T10:02:04.478Z,9.02
2022-11-29T10:04:40.351Z,9.13
2022-11-29T10:07:15.208Z,10.27
2022-11-29T10:09:51.746Z,9.02
2022-11-29T10:12:29.271Z,8.40
2022-11-29T10:15:16.995Z,8.27
2022-11-29T10:18:04.957Z,8.88
2022-11-29T10:20:40.520Z,9.45
2022-11-29T10:23:29.529Z,9.23
2022-11-29T10:25:59.414Z,9.50
2022-11-29T10:28:35.924Z,10.68
2022-11-29T10:31:21.041Z,8.50
2022-11-29T10:33:50.163Z,11.13
2022-11-29T10:36:44.046Z,10.60
2022-11-29T10:39:54.490Z,9.77
2022-11-29T10:42:44.565Z,9.73
2022-11-29T10:45:24.331Z,9.98
2022-11-29T10:47:55.610Z,9.48
2022-11-29T10:50:30.211Z,9.82
2022-11-29T10:53:07.467Z,9.40
2022-11-29T10:55:48.632Z,8.43
2022-11-29T10:58:28.022Z,10.02
2022-11-29T11:01:06.964Z,10.55
2022-11-29T11:03:40.834Z,9.57
2022-11-29T11:06:11.588Z,9.30
2022-11-29T11:08:44.390Z,10.43
2022-11-29T11:11:15.448Z,9.18
2022-11-29T11:13:43.918Z,9.80
2022-11-29T11:16:16.969Z,9.10
2022-11-29T11:18:47.903Z,8.15
2022-11-29T11:21:20.774Z,8.05
2022-11-29T11:23:57.721Z,8.23
2022-11-29T11:26:27.660Z,8.32
2022-11-29T11:29:01.563Z,9.27
2022-11-29T11:31:39.735Z,9.25
2022-11-29T11:34:27.555Z,9.68
2022-11-29T11:37:16.268Z,8.65
2022-11-29T11:39:46.614Z,10.77
2022-11-29T11:42:40.549Z,11.35
2022-11-29T11:45:11.383Z,11.65
2022-11-29T11:47:46.604Z,10.52
2022-11-29T11:50:16.589Z,11.45
2022-11-29T11:52:53.421Z,11.50
2022-11-29T11:55:21.581Z,10.82
2022-11-29T11:58:11.088Z,12.35
2022-11-29T12:01:05.464Z,12.00
2022-11-29T12:03:39.994Z,11.82
2022-11-29T12:06:19.675Z,12.60
2022-11-29T12:08:49.432Z,14.00
2022-11-29T12:11:20.030Z,12.95
2022-11-29T12:13:54.423Z,13.38
2022-11-29T12:16:37.313Z,13.73
2022-11-29T12:19:29.895Z,14.73
2022-11-29T12:22:04.429Z,13.57
2022-11-29T12:24:41.443Z,14.13
2022-11-29T12:27:14.462Z,13.65
2022-11-29T12:29:42.400Z,13.63
2022-11-29T12:32:29.309Z,14.75
2022-11-29T12:35:29.634Z,15.00
2022-11-29T12:38:29.569Z,12.32
2022-11-29T12:41:06.470Z,12.07
2022-11-29T12:44:05.502Z,12.93
2022-11-29T12:46:34.216Z,12.68
2022-11-29T12:49:11.941Z,11.25
2022-11-29T12:51:57.685Z,11.50
2022-11-29T12:54:44.263Z,11.95
2022-11-29T12:57:22.508Z,12.27
2022-11-29T13:00:11.930Z,12.18
2022-11-29T13:03:01.582Z,11.40
2022-11-29T13:05:52.057Z,10.95
2022-11-29T13:08:32.114Z,11.23
2022-11-29T13:11:15.869Z,11.38
2022-11-29T13:13:47.829Z,10.80
2022-11-29T13:17:05.457Z,9.60
2022-11-29T13:19:55.915Z,9.93
2022-11-29T13:22:51.714Z,8.77
2022-11-29T13:25:25.159Z,9.00
2022-11-29T13:28:00.234Z,8.82
2022-11-29T13:30:28.530Z,7.68
2022-11-29T13:33:12.157Z,8.57
2022-11-29T13:36:08.762Z,8.05
2022-11-29T13:39:00.763Z,8.93
2022-11-29T13:41:46.773Z,8.80
2022-11-29T13:44:40.183Z,10.27
2022-11-29T13:47:14.415Z,9.43
2022-11-29T13:50:02.648Z,10.48
2022-11-29T13:52:39.598Z,11.00
2022-11-29T13:55:11.457Z,9.95
2022-11-29T13:58:15.525Z,9.48
2022-11-29T14:00:44.493Z,11.13
2022-11-29T14:03:21.904Z,12.32
2022-11-29T14:06:09.770Z,10.93
2022-11-29T14:09:17.909Z,10.48
2022-11-29T14:11:46.619Z,10.73
2022-11-29T14:14:28.077Z,10.65
2022-11-29T14:17:01.039Z,10.85
2022-11-29T14:19:33.778Z,9.50
2022-11-29T14:22:15.746Z,10.18
2022-11-29T14:24:56.567Z,9.40
2022-11-29T14:27:24.573Z,8.10
2022-11-29T14:29:54.969Z,8.25
2022-11-29T14:32:49.513Z,8.25
2022-11-29T14:35:43.088Z,7.68
2022-11-29T14:38:30.729Z,8.27
2022-11-29T14:41:13.981Z,8.73
2022-11-29T14:43:42.119Z,7.85
2022-11-29T14:46:16.450Z,9.27
2022-11-29T14:49:01.620Z,9.15
2022-11-29T14:51:32.350Z,8.93
2022-11-29T14:54:16.504Z,9.57
2022-11-29T14:56:45.147Z,10.07
2022-11-29T14:59:44.171Z,9.57
2022-11-29T15:02:24.266Z,10.85
2022-11-29T15:04:55.972Z,10.32
2022-11-29T15:07:31.619Z,9.60
2022-11-29T15:10:06.389Z,8.68
2022-11-29T15:12:36.269Z,9.52
2022-11-29T15:15:04.305Z,9.85
2022-11-29T15:17:38.896Z,9.35
2022-11-29T15:20:32.267Z,9.30
2022-11-29T15:23:04.274Z,8.90
2022-11-29T15:25:33.064Z,9.80
2022-11-29T15:28:03.590Z,9.80
2022-11-29T15:30:31.832Z,8.77
2022-11-29T15:33:02.520Z,9.70
2022-11-29T15:35:32.782Z,9.32
2022-11-29T15:38:00.856Z,9.00
2022-11-29T15:40:35.322Z,9.13
2022-11-29T15:43:15.378Z,8.70
2022-11-29T15:45:53.000Z,10.30
2022-11-29T15:48:29.928Z,9.52
2022-11-29T15:50:58.406Z,10.50
2022-11-29T15:54:13.093Z,9.20
2022-11-29T15:56:48.750Z,9.20
2022-11-29T15:59:56.882Z,9.52
2022-11-29T16:02:46.276Z,9.85
2022-11-29T16:05:21.075Z,9.82
2022-11-29T16:08:03.003Z,10.27
2022-11-29T16:10:43.706Z,10.45
2022-11-29T16:13:40.247Z,10.27
2022-11-29T16:16:32.546Z,10.48
2022-11-29T16:19:18.718Z,10.43
2022-11-29T16:22:00.982Z,10.52
2022-11-29T16:24:38.194Z,10.40
2022-11-29T16:27:16.188Z,11.18
2022-11-29T16:30:01.020Z,10.48
2022-11-29T16:32:39.270Z,10.40
2022-11-29T16:36:44.141Z,11.00
2022-11-29T16:39:26.053Z,11.60
2022-11-29T16:42:14.885Z,12.40
2022-11-29T16:44:49.973Z,10.98
2022-11-29T16:47:20.336Z,11.80
2022-11-29T16:50:03.348Z,17.17
2022-11-29T16:52:33.475Z,12.70
2022-11-29T16:55:02.046Z,12.02
2022-11-29T16:57:32.083Z,12.30
2022-11-29T17:00:00.231Z,12.27
2022-11-29T17:02:30.090Z,11.48
2022-11-29T17:05:01.109Z,11.63
2022-11-29T17:07:35.240Z,11.85
2022-11-29T17:10:11.934Z,11.63
2022-11-29T17:12:44.775Z,12.27
2022-11-29T17:15:17.956Z,12.90
2022-11-29T17:17:46.274Z,12.68
2022-11-29T17:20:14.312Z,14.50
2022-11-29T17:22:42.405Z,13.65
2022-11-29T17:25:11.624Z,15.15
2022-11-29T17:27:39.701Z,14.50
2022-11-29T17:30:08.377Z,13.60
2022-11-29T17:32:38.748Z,14.95
2022-11-29T17:35:09.454Z,12.70
2022-11-29T17:37:37.793Z,14.40
2022-11-29T17:40:06.019Z,14.68
2022-11-29T17:42:34.071Z,14.63
2022-11-29T17:45:02.339Z,14.45
2022-11-29T17:47:30.353Z,18.58
2022-11-29T17:49:58.313Z,15.55
2022-11-29T17:52:26.350Z,15.40
2022-11-29T17:54:54.653Z,15.70
2022-11-29T17:57:23.618Z,15.82
2022-11-29T17:59:51.784Z,15.23
2022-11-29T18:02:20.416Z,15.60
2022-11-29T18:04:48.740Z,14.07
2022-11-29T18:07:18.432Z,15.25
2022-11-29T18:09:48.424Z,14.88
2022-11-29T18:12:17.479Z,14.63
2022-11-29T18:14:45.785Z,14.75
2022-11-29T18:17:14.372Z,15.23
2022-11-29T18:19:42.546Z,14.60
2022-11-29T18:22:11.058Z,13.38
2022-11-29T18:24:43.452Z,15.23
2022-11-29T18:27:11.896Z,15.77
2022-11-29T18:29:39.602Z,16.15
2022-11-29T18:32:07.687Z,14.50
2022-11-29T18:34:35.551Z,15.18
2022-11-29T18:37:08.851Z,15.85
2022-11-29T18:39:40.197Z,15.90
2022-11-29T18:42:08.706Z,17.42
2022-11-29T18:44:36.957Z,16.65
2022-11-29T18:47:05.484Z,17.13
2022-11-29T18:49:34.157Z,18.02
2022-11-29T18:52:06.968Z,18.48
2022-11-29T18:54:47.277Z,19.63
2022-11-29T18:57:23.797Z,17.08
2022-11-29T18:59:53.384Z,16.20
2022-11-29T19:02:22.083Z,17.35
2022-11-29T19:04:50.300Z,30.48
2022-11-29T19:07:18.855Z,17.95
2022-11-29T19:09:46.927Z,24.17
2022-11-29T19:12:14.979Z,18.75
2022-11-29T19:14:49.444Z,17.15
2022-11-29T19:17:19.040Z,17.17
2022-11-29T19:19:47.609Z,17.90
2022-11-29T19:22:16.063Z,18.60
2022-11-29T19:24:45.058Z,18.50
2022-11-29T19:27:13.722Z,19.27
2022-11-29T19:29:41.886Z,18.60
2022-11-29T19:32:10.026Z,20.50
2022-11-29T19:34:40.134Z,17.38
2022-11-29T19:37:09.422Z,18.23
2022-11-29T19:39:38.933Z,17.75
2022-11-29T19:42:07.085Z,18.10
2022-11-29T19:44:48.498Z,17.45
2022-11-29T19:47:23.032Z,18.30
2022-11-29T19:50:02.650Z,16.38
2022-11-29T19:52:31.948Z,16.08
2022-11-29T19:55:00.231Z,17.77
2022-11-29T19:57:29.065Z,16.80
2022-11-29T19:59:56.828Z,17.27
2022-11-29T20:02:25.163Z,18.30
2022-11-29T20:04:54.357Z,16.35
2022-11-29T20:07:23.718Z,17.45
2022-11-29T20:09:51.940Z,16.63
2022-11-29T20:12:19.952Z,17.40
2022-11-29T20:14:49.915Z,20.27
2022-11-29T20:17:18.197Z,18.67
2022-11-29T20:19:48.635Z,17.98
2022-11-29T20:22:19.223Z,20.30
2022-11-29T20:24:47.944Z,19.83
2022-11-29T20:27:17.179Z,19.33
2022-11-29T20:29:47.643Z,17.35
2022-11-29T20:32:17.133Z,18.77
2022-11-29T20:34:45.647Z,19.27
2022-11-29T20:37:20.053Z,20.33
2022-11-29T20:40:02.566Z,19.80
2022-11-29T20:42:48.973Z,17.30
2022-11-29T20:45:20.147Z,17.63
2022-11-29T20:47:51.170Z,17.58
2022-11-29T20:50:30.229Z,16.77
2022-11-29T20:53:47.166Z,18.27
2022-11-29T20:56:22.314Z,17.73
2022-11-29T20:58:52.273Z,17.80
2022-11-29T21:01:24.018Z,18.42
2022-11-29T21:03:55.329Z,18.83
2022-11-29T21:06:24.411Z,21.20
2022-11-29T21:08:53.246Z,22.92
2022-11-29T21:11:21.346Z,20.15
2022-11-29T21:13:50.311Z,23.27
2022-11-29T21:16:18.744Z,19.17
2022-11-29T21:18:49.069Z,24.42
2022-11-29T21:21:48.194Z,57.92
2022-11-29T21:24:37.546Z,33.10
2022-11-29T21:27:14.318Z,20.33
2022-11-29T21:29:43.528Z,25.90
2022-11-29T21:32:21.618Z,38.50
2022-11-29T21:34:50.852Z,29.38
2022-11-29T21:37:21.714Z,18.73
2022-11-29T21:39:51.607Z,19.38
2022-11-29T21:42:20.389Z,41.40
2022-11-29T21:44:51.947Z,22.17
2022-11-29T21:47:21.147Z,20.85
2022-11-29T21:49:52.713Z,20.27
2022-11-29T21:52:22.940Z,21.10
2022-11-29T21:54:51.410Z,22.48
2022-11-29T21:57:19.993Z,20.08
2022-11-29T21:59:48.864Z,45.55
2022-11-29T22:02:17.415Z,27.98
2022-11-29T22:04:46.721Z,22.15
2022-11-29T22:07:15.026Z,34.17
2022-11-29T22:09:43.879Z,23.27
2022-11-29T22:12:32.559Z,25.98
2022-11-29T22:15:00.208Z,20.67
2022-11-29T22:17:28.602Z,19.33
2022-11-29T22:19:56.744Z,21.70
2022-11-29T22:22:28.449Z,19.95
2022-11-29T22:24:59.405Z,20.02
2022-11-29T22:27:28.055Z,18.15
2022-11-29T22:29:58.839Z,20.23
2022-11-29T22:32:26.584Z,19.05
2022-11-29T22:34:55.144Z,21.02
2022-11-29T22:37:23.540Z,20.25
2022-11-29T22:39:52.032Z,19.50
2022-11-29T22:42:20.415Z,21.42
2022-11-29T22:44:48.827Z,20.25
2022-11-29T22:47:17.406Z,21.60
2022-11-29T22:49:46.043Z,22.08
2022-11-29T22:52:14.746Z,19.60
2022-11-29T22:54:43.289Z,21.08
2022-11-29T22:57:11.116Z,20.00
2022-11-29T22:59:39.646Z,21.92
2022-11-29T23:02:07.474Z,22.85
2022-11-29T23:04:36.699Z,20.80
2022-11-29T23:07:05.047Z,22.63
2022-11-29T23:09:34.159Z,21.05
2022-11-29T23:12:02.247Z,20.52
2022-11-29T23:14:31.898Z,21.05
2022-11-29T23:16:59.698Z,21.08
2022-11-29T23:19:30.425Z,20.15
2022-11-29T23:21:58.321Z,20.40
2022-11-29T23:24:27.597Z,20.95
2022-11-29T23:26:55.390Z,20.55
2022-11-29T23:29:23.499Z,21.58
2022-11-29T23:31:51.950Z,19.85
2022-11-29T23:34:20.382Z,20.58
2022-11-29T23:36:52.567Z,18.40
2022-11-29T23:39:21.753Z,20.35
2022-11-29T23:41:51.960Z,20.77
2022-11-29T23:44:20.494Z,22.33
2022-11-29T23:46:48.256Z,19.77
2022-11-29T23:49:16.355Z,19.58
2022-11-29T23:51:44.665Z,20.50
2022-11-29T23:54:12.966Z,18.52
2022-11-29T23:56:40.849Z,20.00
2022-11-29T23:59:09.009Z,19.65
